sensor_id;sensor_type;location;lat;lon;timestamp;temperature;humidity
31133;DHT22;17779;50.942;4.026;2022-12-18T00:02:14;-3.40;99.90
31133;DHT22;17779;50.942;4.026;2022-12-18T00:04:40;-3.30;99.90
31133;DHT22;17779;50.942;4.026;2022-12-18T00:07:06;-3.30;99.90
31133;DHT22;17779;50.942;4.026;2022-12-18T00:09:32;-3.30;99.90
31133;DHT22;17779;50.942;4.026;2022-12-18T00:11:57;-3.30;99.90
31133;DHT22;17779;50.942;4.026;2022-12-18T00:14:23;-3.30;99.90
31133;DHT22;17779;50.942;4.026;2022-12-18T00:16:49;-3.40;99.90
31133;DHT22;17779;50.942;4.026;2022-12-18T00:19:15;-3.50;99.90
31133;DHT22;17779;50.942;4.026;2022-12-18T00:21:41;-3.40;99.90
31133;DHT22;17779;50.942;4.026;2022-12-18T00:24:07;-3.30;99.90
31133;DHT22;17779;50.942;4.026;2022-12-18T00:26:34;-3.20;99.90
31133;DHT22;17779;50.942;4.026;2022-12-18T00:29:02;-3.10;99.90
31133;DHT22;17779;50.942;4.026;2022-12-18T00:31:29;-3.20;99.90
31133;DHT22;17779;50.942;4.026;2022-12-18T00:33:54;-3.20;99.90
31133;DHT22;17779;50.942;4.026;2022-12-18T00:36:22;-3.30;99.90
31133;DHT22;17779;50.942;4.026;2022-12-18T00:38:48;-3.50;99.90
31133;DHT22;17779;50.942;4.026;2022-12-18T00:41:15;-3.60;99.90
31133;DHT22;17779;50.942;4.026;2022-12-18T00:44:00;-3.70;99.90
31133;DHT22;17779;50.942;4.026;2022-12-18T00:46:26;-3.60;99.90
31133;DHT22;17779;50.942;4.026;2022-12-18T00:48:52;-3.60;99.90
31133;DHT22;17779;50.942;4.026;2022-12-18T00:51:18;-3.50;99.90
31133;DHT22;17779;50.942;4.026;2022-12-18T00:53:43;-3.30;99.90
31133;DHT22;17779;50.942;4.026;2022-12-18T00:56:09;-3.50;99.90
31133;DHT22;17779;50.942;4.026;2022-12-18T00:58:35;-3.50;99.90
31133;DHT22;17779;50.942;4.026;2022-12-18T01:01:00;-3.40;99.90
31133;DHT22;17779;50.942;4.026;2022-12-18T01:03:26;-3.40;99.90
31133;DHT22;17779;50.942;4.026;2022-12-18T01:05:52;-3.60;99.90
31133;DHT22;17779;50.942;4.026;2022-12-18T01:08:18;-3.80;99.90
31133;DHT22;17779;50.942;4.026;2022-12-18T01:10:44;-3.80;99.90
31133;DHT22;17779;50.942;4.026;2022-12-18T01:13:09;-3.70;99.90
31133;DHT22;17779;50.942;4.026;2022-12-18T01:15:35;-3.90;99.90
31133;DHT22;17779;50.942;4.026;2022-12-18T01:18:01;-4.00;99.90
31133;DHT22;17779;50.942;4.026;2022-12-18T01:20:27;-4.00;99.90
31133;DHT22;17779;50.942;4.026;2022-12-18T01:22:53;-4.00;99.90
31133;DHT22;17779;50.942;4.026;2022-12-18T01:25:18;-4.00;99.90
31133;DHT22;17779;50.942;4.026;2022-12-18T01:27:44;-3.80;99.90
31133;DHT22;17779;50.942;4.026;2022-12-18T01:30:10;-3.90;99.90
31133;DHT22;17779;50.942;4.026;2022-12-18T01:32:36;-4.00;99.90
31133;DHT22;17779;50.942;4.026;2022-12-18T01:35:02;-4.30;99.90
31133;DHT22;17779;50.942;4.026;2022-12-18T01:37:28;-4.40;99.90
31133;DHT22;17779;50.942;4.026;2022-12-18T01:39:54;-4.40;99.90
31133;DHT22;17779;50.942;4.026;2022-12-18T01:42:21;-4.10;99.90
31133;DHT22;17779;50.942;4.026;2022-12-18T01:44:54;-3.90;99.90
31133;DHT22;17779;50.942;4.026;2022-12-18T01:47:24;-3.80;99.90
31133;DHT22;17779;50.942;4.026;2022-12-18T01:49:50;-3.60;99.90
31133;DHT22;17779;50.942;4.026;2022-12-18T01:52:17;-3.90;99.90
31133;DHT22;17779;50.942;4.026;2022-12-18T01:54:43;-4.00;99.90
31133;DHT22;17779;50.942;4.026;2022-12-18T01:57:09;-4.40;99.90
31133;DHT22;17779;50.942;4.026;2022-12-18T01:59:35;-4.80;99.90
31133;DHT22;17779;50.942;4.026;2022-12-18T02:02:02;-4.80;99.90
31133;DHT22;17779;50.942;4.026;2022-12-18T02:04:28;-4.80;99.90
31133;DHT22;17779;50.942;4.026;2022-12-18T02:06:57;-4.60;99.90
31133;DHT22;17779;50.942;4.026;2022-12-18T02:09:41;-4.50;99.90
31133;DHT22;17779;50.942;4.026;2022-12-18T02:12:13;-4.50;99.90
31133;DHT22;17779;50.942;4.026;2022-12-18T02:17:56;-4.50;99.90
31133;DHT22;17779;50.942;4.026;2022-12-18T02:27:41;-4.00;99.90
31133;DHT22;17779;50.942;4.026;2022-12-18T02:30:09;-4.00;99.90
31133;DHT22;17779;50.942;4.026;2022-12-18T02:32:45;-4.00;99.90
31133;DHT22;17779;50.942;4.026;2022-12-18T02:35:16;-3.90;99.90
31133;DHT22;17779;50.942;4.026;2022-12-18T02:37:43;-3.80;99.90
31133;DHT22;17779;50.942;4.026;2022-12-18T02:40:10;-3.80;99.90
31133;DHT22;17779;50.942;4.026;2022-12-18T02:42:37;-4.00;99.90
31133;DHT22;17779;50.942;4.026;2022-12-18T02:45:03;-4.30;99.90
31133;DHT22;17779;50.942;4.026;2022-12-18T02:47:29;-4.50;99.90
31133;DHT22;17779;50.942;4.026;2022-12-18T02:57:58;-4.20;99.90
31133;DHT22;17779;50.942;4.026;2022-12-18T03:03:03;-4.30;99.90
31133;DHT22;17779;50.942;4.026;2022-12-18T03:05:33;-4.30;99.90
31133;DHT22;17779;50.942;4.026;2022-12-18T03:08:09;-4.30;99.90
31133;DHT22;17779;50.942;4.026;2022-12-18T03:10:42;-4.30;99.90
31133;DHT22;17779;50.942;4.026;2022-12-18T03:13:16;-4.10;99.90
31133;DHT22;17779;50.942;4.026;2022-12-18T03:15:45;-4.20;99.90
31133;DHT22;17779;50.942;4.026;2022-12-18T03:18:13;-4.20;99.90
31133;DHT22;17779;50.942;4.026;2022-12-18T03:20:41;-4.20;99.90
31133;DHT22;17779;50.942;4.026;2022-12-18T03:23:12;-4.40;99.90
31133;DHT22;17779;50.942;4.026;2022-12-18T03:25:39;-4.70;99.90
31133;DHT22;17779;50.942;4.026;2022-12-18T03:28:06;-4.80;99.90
31133;DHT22;17779;50.942;4.026;2022-12-18T03:30:33;-4.80;99.90
31133;DHT22;17779;50.942;4.026;2022-12-18T03:33:05;-4.80;99.90
31133;DHT22;17779;50.942;4.026;2022-12-18T03:35:34;-4.70;99.90
31133;DHT22;17779;50.942;4.026;2022-12-18T03:38:00;-4.50;99.90
31133;DHT22;17779;50.942;4.026;2022-12-18T03:40:29;-4.40;99.90
31133;DHT22;17779;50.942;4.026;2022-12-18T03:42:59;-4.30;99.90
31133;DHT22;17779;50.942;4.026;2022-12-18T03:48:05;-4.50;99.90
31133;DHT22;17779;50.942;4.026;2022-12-18T03:50:36;-4.60;99.90
31133;DHT22;17779;50.942;4.026;2022-12-18T03:53:15;-4.70;99.90
31133;DHT22;17779;50.942;4.026;2022-12-18T03:55:43;-4.90;99.90
31133;DHT22;17779;50.942;4.026;2022-12-18T03:58:10;-4.80;99.90
31133;DHT22;17779;50.942;4.026;2022-12-18T04:00:37;-4.60;99.90
31133;DHT22;17779;50.942;4.026;2022-12-18T04:03:03;-4.50;99.90
31133;DHT22;17779;50.942;4.026;2022-12-18T04:05:30;-4.50;99.90
31133;DHT22;17779;50.942;4.026;2022-12-18T04:07:57;-4.50;99.90
31133;DHT22;17779;50.942;4.026;2022-12-18T04:10:23;-4.50;99.90
31133;DHT22;17779;50.942;4.026;2022-12-18T04:12:49;-4.60;99.90
31133;DHT22;17779;50.942;4.026;2022-12-18T04:15:15;-4.70;99.90
31133;DHT22;17779;50.942;4.026;2022-12-18T04:17:45;-4.80;99.90
31133;DHT22;17779;50.942;4.026;2022-12-18T04:20:12;-4.90;99.90
31133;DHT22;17779;50.942;4.026;2022-12-18T04:22:38;-5.00;99.90
31133;DHT22;17779;50.942;4.026;2022-12-18T04:25:04;-4.80;99.90
31133;DHT22;17779;50.942;4.026;2022-12-18T04:27:30;-4.70;99.90
31133;DHT22;17779;50.942;4.026;2022-12-18T04:29:55;-4.60;99.90
31133;DHT22;17779;50.942;4.026;2022-12-18T04:32:21;-4.60;99.90
31133;DHT22;17779;50.942;4.026;2022-12-18T04:34:47;-4.90;99.90
31133;DHT22;17779;50.942;4.026;2022-12-18T04:37:14;-4.90;99.90
31133;DHT22;17779;50.942;4.026;2022-12-18T04:39:40;-4.70;99.90
31133;DHT22;17779;50.942;4.026;2022-12-18T04:42:06;-4.60;99.90
31133;DHT22;17779;50.942;4.026;2022-12-18T04:44:31;-4.60;99.90
31133;DHT22;17779;50.942;4.026;2022-12-18T04:46:57;-4.60;99.90
31133;DHT22;17779;50.942;4.026;2022-12-18T04:49:23;-4.90;99.90
31133;DHT22;17779;50.942;4.026;2022-12-18T04:51:49;-5.00;99.90
31133;DHT22;17779;50.942;4.026;2022-12-18T04:54:15;-5.00;99.90
31133;DHT22;17779;50.942;4.026;2022-12-18T04:56:41;-4.80;99.90
31133;DHT22;17779;50.942;4.026;2022-12-18T04:59:07;-4.60;99.90
31133;DHT22;17779;50.942;4.026;2022-12-18T05:01:32;-4.60;99.90
31133;DHT22;17779;50.942;4.026;2022-12-18T05:03:58;-4.70;99.90
31133;DHT22;17779;50.942;4.026;2022-12-18T05:06:24;-4.60;99.90
31133;DHT22;17779;50.942;4.026;2022-12-18T05:08:50;-4.50;99.90
31133;DHT22;17779;50.942;4.026;2022-12-18T05:11:19;-4.40;99.90
31133;DHT22;17779;50.942;4.026;2022-12-18T05:13:45;-4.30;99.90
31133;DHT22;17779;50.942;4.026;2022-12-18T05:16:11;-4.20;99.90
31133;DHT22;17779;50.942;4.026;2022-12-18T05:18:37;-4.20;99.90
31133;DHT22;17779;50.942;4.026;2022-12-18T05:21:03;-4.10;99.90
31133;DHT22;17779;50.942;4.026;2022-12-18T05:23:29;-4.20;99.90
31133;DHT22;17779;50.942;4.026;2022-12-18T05:25:55;-4.50;99.90
31133;DHT22;17779;50.942;4.026;2022-12-18T05:28:21;-4.60;99.90
31133;DHT22;17779;50.942;4.026;2022-12-18T05:30:49;-4.50;99.90
31133;DHT22;17779;50.942;4.026;2022-12-18T05:33:15;-4.40;99.90
31133;DHT22;17779;50.942;4.026;2022-12-18T05:35:40;-4.20;99.90
31133;DHT22;17779;50.942;4.026;2022-12-18T05:38:06;-4.20;99.90
31133;DHT22;17779;50.942;4.026;2022-12-18T05:40:32;-4.10;99.90
31133;DHT22;17779;50.942;4.026;2022-12-18T05:42:58;-4.20;99.90
31133;DHT22;17779;50.942;4.026;2022-12-18T05:45:24;-4.20;99.90
31133;DHT22;17779;50.942;4.026;2022-12-18T05:47:49;-4.00;99.90
31133;DHT22;17779;50.942;4.026;2022-12-18T05:50:15;-4.00;99.90
31133;DHT22;17779;50.942;4.026;2022-12-18T05:52:41;-4.10;99.90
31133;DHT22;17779;50.942;4.026;2022-12-18T05:55:07;-4.10;99.90
31133;DHT22;17779;50.942;4.026;2022-12-18T05:57:33;-4.20;99.90
31133;DHT22;17779;50.942;4.026;2022-12-18T05:59:59;-4.60;99.90
31133;DHT22;17779;50.942;4.026;2022-12-18T06:02:24;-4.90;99.90
31133;DHT22;17779;50.942;4.026;2022-12-18T06:04:50;-5.10;99.90
31133;DHT22;17779;50.942;4.026;2022-12-18T06:07:16;-5.10;99.90
31133;DHT22;17779;50.942;4.026;2022-12-18T06:09:42;-5.10;99.90
31133;DHT22;17779;50.942;4.026;2022-12-18T06:12:08;-5.00;99.90
31133;DHT22;17779;50.942;4.026;2022-12-18T06:14:34;-5.10;99.90
31133;DHT22;17779;50.942;4.026;2022-12-18T06:17:00;-5.00;99.90
31133;DHT22;17779;50.942;4.026;2022-12-18T06:19:26;-5.10;99.90
31133;DHT22;17779;50.942;4.026;2022-12-18T06:21:52;-5.10;99.90
31133;DHT22;17779;50.942;4.026;2022-12-18T06:24:18;-5.20;99.90
31133;DHT22;17779;50.942;4.026;2022-12-18T06:26:44;-5.30;99.90
31133;DHT22;17779;50.942;4.026;2022-12-18T06:29:10;-5.20;99.90
31133;DHT22;17779;50.942;4.026;2022-12-18T06:31:35;-5.10;99.90
31133;DHT22;17779;50.942;4.026;2022-12-18T06:34:03;-5.20;99.90
31133;DHT22;17779;50.942;4.026;2022-12-18T06:36:32;-5.10;99.90
31133;DHT22;17779;50.942;4.026;2022-12-18T06:38:58;-4.90;99.90
31133;DHT22;17779;50.942;4.026;2022-12-18T06:41:27;-4.80;99.90
31133;DHT22;17779;50.942;4.026;2022-12-18T06:43:53;-4.60;99.90
31133;DHT22;17779;50.942;4.026;2022-12-18T06:46:19;-4.40;99.90
31133;DHT22;17779;50.942;4.026;2022-12-18T06:48:48;-4.60;99.90
31133;DHT22;17779;50.942;4.026;2022-12-18T06:51:16;-4.80;99.90
31133;DHT22;17779;50.942;4.026;2022-12-18T06:53:42;-4.90;99.90
31133;DHT22;17779;50.942;4.026;2022-12-18T06:56:07;-4.80;99.90
31133;DHT22;17779;50.942;4.026;2022-12-18T06:58:33;-4.70;99.90
31133;DHT22;17779;50.942;4.026;2022-12-18T07:01:03;-4.60;99.90
31133;DHT22;17779;50.942;4.026;2022-12-18T07:03:29;-4.50;99.90
31133;DHT22;17779;50.942;4.026;2022-12-18T07:05:55;-4.50;99.90
31133;DHT22;17779;50.942;4.026;2022-12-18T07:08:20;-4.70;99.90
31133;DHT22;17779;50.942;4.026;2022-12-18T07:10:46;-4.80;99.90
31133;DHT22;17779;50.942;4.026;2022-12-18T07:13:14;-4.70;99.90
31133;DHT22;17779;50.942;4.026;2022-12-18T07:15:40;-4.60;99.90
31133;DHT22;17779;50.942;4.026;2022-12-18T07:18:06;-4.60;99.90
31133;DHT22;17779;50.942;4.026;2022-12-18T07:20:32;-4.70;99.90
31133;DHT22;17779;50.942;4.026;2022-12-18T07:22:58;-4.70;99.90
31133;DHT22;17779;50.942;4.026;2022-12-18T07:25:24;-4.60;99.90
31133;DHT22;17779;50.942;4.026;2022-12-18T07:27:50;-4.40;99.90
31133;DHT22;17779;50.942;4.026;2022-12-18T07:30:15;-4.50;99.90
31133;DHT22;17779;50.942;4.026;2022-12-18T07:32:41;-4.80;99.90
31133;DHT22;17779;50.942;4.026;2022-12-18T07:35:07;-4.90;99.90
31133;DHT22;17779;50.942;4.026;2022-12-18T07:37:37;-4.90;99.90
31133;DHT22;17779;50.942;4.026;2022-12-18T07:40:02;-4.90;99.90
31133;DHT22;17779;50.942;4.026;2022-12-18T07:42:28;-4.70;99.90
31133;DHT22;17779;50.942;4.026;2022-12-18T07:44:57;-4.60;99.90
31133;DHT22;17779;50.942;4.026;2022-12-18T07:47:23;-4.60;99.90
31133;DHT22;17779;50.942;4.026;2022-12-18T07:49:49;-4.80;99.90
31133;DHT22;17779;50.942;4.026;2022-12-18T07:52:16;-4.70;99.90
31133;DHT22;17779;50.942;4.026;2022-12-18T07:54:41;-4.60;99.90
31133;DHT22;17779;50.942;4.026;2022-12-18T07:57:07;-4.40;99.90
31133;DHT22;17779;50.942;4.026;2022-12-18T07:59:34;-4.20;99.90
31133;DHT22;17779;50.942;4.026;2022-12-18T08:02:00;-4.40;99.90
31133;DHT22;17779;50.942;4.026;2022-12-18T08:04:25;-4.70;99.90
31133;DHT22;17779;50.942;4.026;2022-12-18T08:06:51;-4.70;99.90
31133;DHT22;17779;50.942;4.026;2022-12-18T08:09:17;-4.70;99.90
31133;DHT22;17779;50.942;4.026;2022-12-18T08:11:43;-4.40;99.90
31133;DHT22;17779;50.942;4.026;2022-12-18T08:14:09;-4.00;99.90
31133;DHT22;17779;50.942;4.026;2022-12-18T08:16:35;-3.80;99.90
31133;DHT22;17779;50.942;4.026;2022-12-18T08:19:01;-3.40;99.90
31133;DHT22;17779;50.942;4.026;2022-12-18T08:21:28;-3.40;99.90
31133;DHT22;17779;50.942;4.026;2022-12-18T08:23:55;-3.30;99.90
31133;DHT22;17779;50.942;4.026;2022-12-18T08:26:21;-3.20;99.90
31133;DHT22;17779;50.942;4.026;2022-12-18T08:28:47;-2.90;99.90
31133;DHT22;17779;50.942;4.026;2022-12-18T08:31:12;-2.90;99.90
31133;DHT22;17779;50.942;4.026;2022-12-18T08:33:38;-2.80;99.90
31133;DHT22;17779;50.942;4.026;2022-12-18T08:36:04;-2.90;99.90
31133;DHT22;17779;50.942;4.026;2022-12-18T08:38:31;-2.80;99.90
31133;DHT22;17779;50.942;4.026;2022-12-18T08:41:00;-2.80;99.90
31133;DHT22;17779;50.942;4.026;2022-12-18T08:43:26;-2.80;99.90
31133;DHT22;17779;50.942;4.026;2022-12-18T08:46:10;-2.50;99.90
31133;DHT22;17779;50.942;4.026;2022-12-18T08:48:36;-2.30;99.90
31133;DHT22;17779;50.942;4.026;2022-12-18T08:51:02;-2.00;99.90
31133;DHT22;17779;50.942;4.026;2022-12-18T08:53:28;-1.60;99.90
31133;DHT22;17779;50.942;4.026;2022-12-18T08:55:53;-1.40;99.90
31133;DHT22;17779;50.942;4.026;2022-12-18T08:58:21;-1.30;99.90
31133;DHT22;17779;50.942;4.026;2022-12-18T09:00:47;-1.40;99.90
31133;DHT22;17779;50.942;4.026;2022-12-18T09:03:13;-1.30;99.90
31133;DHT22;17779;50.942;4.026;2022-12-18T09:05:39;-1.40;99.90
31133;DHT22;17779;50.942;4.026;2022-12-18T09:08:05;-1.60;99.90
31133;DHT22;17779;50.942;4.026;2022-12-18T09:10:31;-1.80;99.90
31133;DHT22;17779;50.942;4.026;2022-12-18T09:12:57;-1.80;99.90
31133;DHT22;17779;50.942;4.026;2022-12-18T09:15:22;-1.70;99.90
31133;DHT22;17779;50.942;4.026;2022-12-18T09:17:48;-1.80;99.90
31133;DHT22;17779;50.942;4.026;2022-12-18T09:20:15;-1.90;99.90
31133;DHT22;17779;50.942;4.026;2022-12-18T09:22:41;-1.80;99.90
31133;DHT22;17779;50.942;4.026;2022-12-18T09:25:07;-1.70;99.90
31133;DHT22;17779;50.942;4.026;2022-12-18T09:27:34;-1.60;99.90
31133;DHT22;17779;50.942;4.026;2022-12-18T09:29:59;-1.70;99.90
31133;DHT22;17779;50.942;4.026;2022-12-18T09:32:25;-1.60;99.90
31133;DHT22;17779;50.942;4.026;2022-12-18T09:34:51;-1.40;99.90
31133;DHT22;17779;50.942;4.026;2022-12-18T09:37:17;-1.50;99.90
31133;DHT22;17779;50.942;4.026;2022-12-18T09:39:42;-1.50;99.90
31133;DHT22;17779;50.942;4.026;2022-12-18T09:42:10;-1.40;99.90
31133;DHT22;17779;50.942;4.026;2022-12-18T09:44:43;-1.30;99.90
31133;DHT22;17779;50.942;4.026;2022-12-18T09:49:47;-1.20;99.90
31133;DHT22;17779;50.942;4.026;2022-12-18T09:52:19;-1.30;99.90
31133;DHT22;17779;50.942;4.026;2022-12-18T09:55:00;-1.20;99.90
31133;DHT22;17779;50.942;4.026;2022-12-18T09:57:29;-1.20;99.90
31133;DHT22;17779;50.942;4.026;2022-12-18T09:59:56;-1.30;99.90
31133;DHT22;17779;50.942;4.026;2022-12-18T10:02:24;-1.20;99.90
31133;DHT22;17779;50.942;4.026;2022-12-18T10:05:10;-1.20;99.90
31133;DHT22;17779;50.942;4.026;2022-12-18T10:15:29;-1.20;99.90
31133;DHT22;17779;50.942;4.026;2022-12-18T10:18:21;-1.20;99.90
31133;DHT22;17779;50.942;4.026;2022-12-18T10:20:44;-1.20;99.90
31133;DHT22;17779;50.942;4.026;2022-12-18T10:23:26;-1.20;99.90
31133;DHT22;17779;50.942;4.026;2022-12-18T10:26:04;-1.00;99.90
31133;DHT22;17779;50.942;4.026;2022-12-18T10:28:31;-1.00;99.90
31133;DHT22;17779;50.942;4.026;2022-12-18T10:30:57;-0.90;99.90
31133;DHT22;17779;50.942;4.026;2022-12-18T10:33:24;-0.70;99.90
31133;DHT22;17779;50.942;4.026;2022-12-18T10:35:52;-0.80;99.90
31133;DHT22;17779;50.942;4.026;2022-12-18T10:40:53;-0.70;99.90
31133;DHT22;17779;50.942;4.026;2022-12-18T10:43:23;-0.70;99.90
31133;DHT22;17779;50.942;4.026;2022-12-18T10:46:34;-0.70;99.90
31133;DHT22;17779;50.942;4.026;2022-12-18T10:48:36;-0.70;99.90
31133;DHT22;17779;50.942;4.026;2022-12-18T10:51:05;-0.70;99.90
31133;DHT22;17779;50.942;4.026;2022-12-18T10:53:31;-0.70;99.90
31133;DHT22;17779;50.942;4.026;2022-12-18T10:55:58;-0.70;99.90
31133;DHT22;17779;50.942;4.026;2022-12-18T10:58:34;-0.60;99.90
31133;DHT22;17779;50.942;4.026;2022-12-18T11:01:05;-0.30;99.90
31133;DHT22;17779;50.942;4.026;2022-12-18T11:06:04;-0.20;99.90
31133;DHT22;17779;50.942;4.026;2022-12-18T11:08:30;-0.40;99.90
31133;DHT22;17779;50.942;4.026;2022-12-18T11:10:59;-0.20;99.90
31133;DHT22;17779;50.942;4.026;2022-12-18T11:13:26;-0.20;99.90
31133;DHT22;17779;50.942;4.026;2022-12-18T11:15:52;-0.30;99.90
31133;DHT22;17779;50.942;4.026;2022-12-18T11:18:28;-0.20;99.90
31133;DHT22;17779;50.942;4.026;2022-12-18T11:21:16;-0.30;99.90
31133;DHT22;17779;50.942;4.026;2022-12-18T11:23:46;-0.30;99.90
31133;DHT22;17779;50.942;4.026;2022-12-18T11:26:12;-0.20;99.90
31133;DHT22;17779;50.942;4.026;2022-12-18T11:28:43;-0.10;99.90
31133;DHT22;17779;50.942;4.026;2022-12-18T11:33:35;0.00;99.90
31133;DHT22;17779;50.942;4.026;2022-12-18T11:36:02;0.10;99.90
31133;DHT22;17779;50.942;4.026;2022-12-18T11:40:56;-0.20;99.90
31133;DHT22;17779;50.942;4.026;2022-12-18T11:43:28;-0.20;99.90
31133;DHT22;17779;50.942;4.026;2022-12-18T11:46:01;-0.20;99.90
31133;DHT22;17779;50.942;4.026;2022-12-18T11:48:30;-0.10;99.90
31133;DHT22;17779;50.942;4.026;2022-12-18T11:51:01;-0.10;99.90
31133;DHT22;17779;50.942;4.026;2022-12-18T11:53:29;-0.20;99.90
31133;DHT22;17779;50.942;4.026;2022-12-18T12:01:26;0.50;99.90
31133;DHT22;17779;50.942;4.026;2022-12-18T12:04:17;0.80;99.90
31133;DHT22;17779;50.942;4.026;2022-12-18T12:09:37;0.90;99.90
31133;DHT22;17779;50.942;4.026;2022-12-18T12:17:04;0.60;99.90
31133;DHT22;17779;50.942;4.026;2022-12-18T12:19:37;0.50;99.90
31133;DHT22;17779;50.942;4.026;2022-12-18T12:24:36;0.40;99.90
31133;DHT22;17779;50.942;4.026;2022-12-18T12:32:24;0.40;99.90
31133;DHT22;17779;50.942;4.026;2022-12-18T12:35:09;0.50;99.90
31133;DHT22;17779;50.942;4.026;2022-12-18T12:37:44;0.40;99.90
31133;DHT22;17779;50.942;4.026;2022-12-18T12:40:15;0.60;99.90
31133;DHT22;17779;50.942;4.026;2022-12-18T12:42:43;0.70;99.90
31133;DHT22;17779;50.942;4.026;2022-12-18T12:45:33;0.60;99.90
31133;DHT22;17779;50.942;4.026;2022-12-18T12:48:01;0.70;99.90
31133;DHT22;17779;50.942;4.026;2022-12-18T12:50:27;0.70;99.90
31133;DHT22;17779;50.942;4.026;2022-12-18T12:52:54;0.80;99.90
31133;DHT22;17779;50.942;4.026;2022-12-18T12:55:22;0.90;99.90
31133;DHT22;17779;50.942;4.026;2022-12-18T13:00:56;0.80;99.90
31133;DHT22;17779;50.942;4.026;2022-12-18T13:05:46;0.70;99.90
31133;DHT22;17779;50.942;4.026;2022-12-18T13:08:25;0.80;99.90
31133;DHT22;17779;50.942;4.026;2022-12-18T13:10:52;0.80;99.90
31133;DHT22;17779;50.942;4.026;2022-12-18T13:13:50;0.90;99.90
31133;DHT22;17779;50.942;4.026;2022-12-18T13:16:20;1.00;99.90
31133;DHT22;17779;50.942;4.026;2022-12-18T13:18:52;1.00;99.90
31133;DHT22;17779;50.942;4.026;2022-12-18T13:21:27;1.10;99.90
31133;DHT22;17779;50.942;4.026;2022-12-18T13:23:54;1.10;99.90
31133;DHT22;17779;50.942;4.026;2022-12-18T13:28:53;1.00;99.90
31133;DHT22;17779;50.942;4.026;2022-12-18T13:32:15;1.00;99.90
31133;DHT22;17779;50.942;4.026;2022-12-18T13:34:21;1.10;99.90
31133;DHT22;17779;50.942;4.026;2022-12-18T13:36:47;1.10;99.90
31133;DHT22;17779;50.942;4.026;2022-12-18T13:41:42;1.00;99.90
31133;DHT22;17779;50.942;4.026;2022-12-18T13:44:12;1.00;99.90
31133;DHT22;17779;50.942;4.026;2022-12-18T13:46:48;1.00;99.90
31133;DHT22;17779;50.942;4.026;2022-12-18T13:49:34;1.00;99.90
31133;DHT22;17779;50.942;4.026;2022-12-18T13:52:02;1.00;99.90
31133;DHT22;17779;50.942;4.026;2022-12-18T13:57:00;1.00;99.90
31133;DHT22;17779;50.942;4.026;2022-12-18T13:59:26;1.00;99.90
31133;DHT22;17779;50.942;4.026;2022-12-18T14:01:56;1.00;99.90
31133;DHT22;17779;50.942;4.026;2022-12-18T14:04:24;1.00;99.90
31133;DHT22;17779;50.942;4.026;2022-12-18T14:06:51;1.10;99.90
31133;DHT22;17779;50.942;4.026;2022-12-18T14:09:19;0.90;99.90
31133;DHT22;17779;50.942;4.026;2022-12-18T14:11:49;0.80;99.90
31133;DHT22;17779;50.942;4.026;2022-12-18T14:14:35;0.80;99.90
31133;DHT22;17779;50.942;4.026;2022-12-18T14:17:02;0.80;99.90
31133;DHT22;17779;50.942;4.026;2022-12-18T14:19:28;0.70;99.90
31133;DHT22;17779;50.942;4.026;2022-12-18T14:21:53;0.70;99.90
31133;DHT22;17779;50.942;4.026;2022-12-18T14:24:20;0.80;99.90
31133;DHT22;17779;50.942;4.026;2022-12-18T14:26:47;0.70;99.90
31133;DHT22;17779;50.942;4.026;2022-12-18T14:29:23;0.80;99.90
31133;DHT22;17779;50.942;4.026;2022-12-18T14:32:06;0.80;99.90
31133;DHT22;17779;50.942;4.026;2022-12-18T14:34:32;0.70;99.90
31133;DHT22;17779;50.942;4.026;2022-12-18T14:36:58;0.70;99.90
31133;DHT22;17779;50.942;4.026;2022-12-18T14:39:24;0.60;99.90
31133;DHT22;17779;50.942;4.026;2022-12-18T14:41:51;0.70;99.90
31133;DHT22;17779;50.942;4.026;2022-12-18T14:44:17;0.70;99.90
31133;DHT22;17779;50.942;4.026;2022-12-18T14:46:44;0.60;99.90
31133;DHT22;17779;50.942;4.026;2022-12-18T14:49:27;0.60;99.90
31133;DHT22;17779;50.942;4.026;2022-12-18T14:51:55;0.70;99.90
31133;DHT22;17779;50.942;4.026;2022-12-18T14:54:22;0.80;99.90
31133;DHT22;17779;50.942;4.026;2022-12-18T14:56:49;0.70;99.90
31133;DHT22;17779;50.942;4.026;2022-12-18T14:59:16;0.60;99.90
31133;DHT22;17779;50.942;4.026;2022-12-18T15:01:48;0.60;99.90
31133;DHT22;17779;50.942;4.026;2022-12-18T15:04:23;0.60;99.90
31133;DHT22;17779;50.942;4.026;2022-12-18T15:06:50;0.70;99.90
31133;DHT22;17779;50.942;4.026;2022-12-18T15:09:27;0.70;99.90
31133;DHT22;17779;50.942;4.026;2022-12-18T15:11:57;0.80;99.90
31133;DHT22;17779;50.942;4.026;2022-12-18T15:14:38;0.80;99.90
31133;DHT22;17779;50.942;4.026;2022-12-18T15:17:06;0.70;99.90
31133;DHT22;17779;50.942;4.026;2022-12-18T15:19:39;0.90;99.90
31133;DHT22;17779;50.942;4.026;2022-12-18T15:24:50;0.80;99.90
31133;DHT22;17779;50.942;4.026;2022-12-18T15:27:35;0.80;99.90
31133;DHT22;17779;50.942;4.026;2022-12-18T15:30:15;0.80;99.90
31133;DHT22;17779;50.942;4.026;2022-12-18T15:32:41;0.80;99.90
31133;DHT22;17779;50.942;4.026;2022-12-18T15:37:33;0.90;99.90
31133;DHT22;17779;50.942;4.026;2022-12-18T15:39:59;0.90;99.90
31133;DHT22;17779;50.942;4.026;2022-12-18T15:42:24;0.90;99.90
31133;DHT22;17779;50.942;4.026;2022-12-18T15:45:12;0.90;99.90
31133;DHT22;17779;50.942;4.026;2022-12-18T15:47:38;0.80;99.90
31133;DHT22;17779;50.942;4.026;2022-12-18T15:50:04;1.00;99.90
31133;DHT22;17779;50.942;4.026;2022-12-18T15:52:31;0.90;99.90
31133;DHT22;17779;50.942;4.026;2022-12-18T15:55:02;1.00;99.90
31133;DHT22;17779;50.942;4.026;2022-12-18T15:57:46;1.00;99.90
31133;DHT22;17779;50.942;4.026;2022-12-18T16:00:12;1.00;99.90
31133;DHT22;17779;50.942;4.026;2022-12-18T16:02:38;1.00;99.90
31133;DHT22;17779;50.942;4.026;2022-12-18T16:05:05;1.00;99.90
31133;DHT22;17779;50.942;4.026;2022-12-18T16:07:35;1.10;99.90
31133;DHT22;17779;50.942;4.026;2022-12-18T16:10:01;1.00;99.90
31133;DHT22;17779;50.942;4.026;2022-12-18T16:12:26;1.00;99.90
31133;DHT22;17779;50.942;4.026;2022-12-18T16:14:52;1.00;99.90
31133;DHT22;17779;50.942;4.026;2022-12-18T16:17:18;1.10;99.90
31133;DHT22;17779;50.942;4.026;2022-12-18T16:19:44;1.20;99.90
31133;DHT22;17779;50.942;4.026;2022-12-18T16:22:18;1.10;99.90
31133;DHT22;17779;50.942;4.026;2022-12-18T16:24:45;1.10;99.90
31133;DHT22;17779;50.942;4.026;2022-12-18T16:27:11;1.20;99.90
31133;DHT22;17779;50.942;4.026;2022-12-18T16:29:36;1.10;99.90
31133;DHT22;17779;50.942;4.026;2022-12-18T16:32:02;1.10;99.90
31133;DHT22;17779;50.942;4.026;2022-12-18T16:34:29;1.20;99.90
31133;DHT22;17779;50.942;4.026;2022-12-18T16:36:58;1.20;99.90
31133;DHT22;17779;50.942;4.026;2022-12-18T16:39:26;1.20;99.90
31133;DHT22;17779;50.942;4.026;2022-12-18T16:41:52;1.20;99.90
31133;DHT22;17779;50.942;4.026;2022-12-18T16:44:18;1.20;99.90
31133;DHT22;17779;50.942;4.026;2022-12-18T16:46:45;1.30;99.90
31133;DHT22;17779;50.942;4.026;2022-12-18T16:49:11;1.30;99.90
31133;DHT22;17779;50.942;4.026;2022-12-18T16:51:39;1.20;99.90
31133;DHT22;17779;50.942;4.026;2022-12-18T16:54:08;1.30;99.90
31133;DHT22;17779;50.942;4.026;2022-12-18T16:56:34;1.30;99.90
31133;DHT22;17779;50.942;4.026;2022-12-18T16:59:00;1.30;99.90
31133;DHT22;17779;50.942;4.026;2022-12-18T17:01:27;1.20;99.90
31133;DHT22;17779;50.942;4.026;2022-12-18T17:03:57;1.20;99.90
31133;DHT22;17779;50.942;4.026;2022-12-18T17:06:24;1.20;99.90